Time;durP1;ratioP1;P1;durP2;ratioP2;P2;SDS_P1;SDS_P2;PMS_P1;PMS_P2;Temp;Humidity;BMP_temperature;BMP_pressure;BME280_temperature;BME280_humidity;BME280_pressure;Samples;Min_cycle;Max_cycle;Signal;HPM_P1;HPM_P2
2023/06/18 00:02:03;;;;;;;4.03;3.10;;;20.70;1.00;;;;;;5071555;28;20851;-61
2023/06/18 00:04:31;;;;;;;3.77;3.13;;;20.60;1.00;;;;;;5072648;28;20472;-61
2023/06/18 00:06:59;;;;;;;4.10;3.47;;;20.60;1.00;;;;;;5073560;28;20725;-59
2023/06/18 00:09:26;;;;;;;4.32;3.92;;;20.60;1.00;;;;;;5074263;28;20424;-60
2023/06/18 00:11:53;;;;;;;4.57;4.03;;;20.60;1.00;;;;;;5074803;28;20425;-60
2023/06/18 00:14:20;;;;;;;6.32;5.15;;;20.60;1.00;;;;;;5074464;28;20424;-60
2023/06/18 00:16:47;;;;;;;6.05;4.82;;;20.60;1.00;;;;;;5074996;28;20462;-60
2023/06/18 00:19:14;;;;;;;5.38;4.10;;;20.50;1.00;;;;;;5074327;28;20571;-60
2023/06/18 00:21:41;;;;;;;5.15;4.32;;;20.40;1.00;;;;;;5072775;28;20485;-60
2023/06/18 00:24:10;;;;;;;2.85;2.60;;;20.50;1.00;;;;;;5074262;28;20431;-60
2023/06/18 00:26:37;;;;;;;3.58;3.28;;;20.40;1.00;;;;;;5074922;28;20427;-60
2023/06/18 00:29:04;;;;;;;4.90;3.40;;;20.40;1.00;;;;;;5073650;28;20427;-59
2023/06/18 00:31:32;;;;;;;4.70;3.25;;;20.30;1.00;;;;;;5074459;28;20789;-60
2023/06/18 00:34:04;;;;;;;3.70;3.40;;;20.30;1.00;;;;;;5066803;28;20796;-59
2023/06/18 00:36:32;;;;;;;4.07;3.67;;;20.30;1.00;;;;;;5071456;28;20431;-59
2023/06/18 00:38:58;;;;;;;4.82;4.10;;;20.30;1.00;;;;;;5068389;28;20867;-59
2023/06/18 00:41:28;;;;;;;5.13;4.50;;;20.30;1.00;;;;;;5072514;28;20477;-59
2023/06/18 00:43:57;;;;;;;4.50;4.10;;;20.30;1.00;;;;;;5072785;28;20445;-60
2023/06/18 00:46:25;;;;;;;5.00;4.45;;;20.10;1.00;;;;;;5074479;28;20432;-59
2023/06/18 00:48:52;;;;;;;5.97;4.50;;;20.00;1.00;;;;;;5074510;28;20455;-59
2023/06/18 00:51:21;;;;;;;5.10;3.70;;;20.10;1.00;;;;;;5074255;28;20419;-59
2023/06/18 00:53:48;;;;;;;4.05;3.60;;;20.20;1.00;;;;;;5073203;28;20477;-59
2023/06/18 00:56:15;;;;;;;4.32;4.00;;;20.20;1.00;;;;;;5074792;28;20427;-59
2023/06/18 00:58:47;;;;;;;4.25;3.65;;;20.30;1.00;;;;;;5077949;28;20474;-59
2023/06/18 01:01:14;;;;;;;3.00;2.70;;;20.20;1.00;;;;;;5076972;28;20435;-60
2023/06/18 01:03:42;;;;;;;4.20;3.10;;;20.30;1.00;;;;;;5077276;28;20467;-59
2023/06/18 01:06:12;;;;;;;3.00;2.70;;;20.30;1.00;;;;;;5077175;28;20412;-58
2023/06/18 01:08:43;;;;;;;3.13;2.83;;;20.20;1.00;;;;;;5077982;28;20416;-59
2023/06/18 01:11:10;;;;;;;3.13;2.83;;;20.10;1.00;;;;;;5077897;28;20439;-60
2023/06/18 01:13:42;;;;;;;4.43;3.65;;;20.10;1.00;;;;;;5078173;28;20489;-60
2023/06/18 01:16:11;;;;;;;6.32;4.10;;;20.10;1.00;;;;;;5077389;28;20439;-59
2023/06/18 01:18:44;;;;;;;4.43;2.95;;;20.10;1.00;;;;;;5076965;28;20609;-60
2023/06/18 01:21:15;;;;;;;4.50;2.67;;;20.00;1.00;;;;;;5075685;28;20428;-59
2023/06/18 01:23:57;;;;;;;3.70;2.40;;;20.00;1.00;;;;;;5075474;28;20430;-59
2023/06/18 01:26:26;;;;;;;3.97;2.53;;;20.00;1.00;;;;;;5077214;28;20427;-58
2023/06/18 01:28:53;;;;;;;3.20;2.90;;;20.00;1.00;;;;;;5077226;28;20441;-59
2023/06/18 01:31:23;;;;;;;2.63;2.42;;;19.90;1.00;;;;;;5077090;28;20496;-58
2023/06/18 01:33:53;;;;;;;3.40;2.60;;;19.80;1.00;;;;;;5077157;28;20510;-59
2023/06/18 01:36:30;;;;;;;3.20;2.40;;;19.80;1.00;;;;;;5076010;28;20513;-60
2023/06/18 01:39:05;;;;;;;3.70;2.90;;;19.80;1.00;;;;;;5076729;28;20462;-59
2023/06/18 01:41:37;;;;;;;4.13;2.35;;;19.80;1.00;;;;;;5077174;28;20513;-59
2023/06/18 01:44:09;;;;;;;4.18;3.00;;;19.70;1.00;;;;;;5077204;28;20427;-59
2023/06/18 01:46:38;;;;;;;3.50;2.30;;;19.70;1.00;;;;;;5077376;28;20597;-59
2023/06/18 01:49:07;;;;;;;3.30;2.15;;;19.60;1.00;;;;;;5077390;28;20436;-58
2023/06/18 01:51:36;;;;;;;2.80;2.38;;;19.60;1.00;;;;;;5077396;28;20427;-58
2023/06/18 01:54:05;;;;;;;3.20;2.90;;;19.60;1.00;;;;;;5077293;28;20427;-58
2023/06/18 01:56:33;;;;;;;3.92;2.85;;;19.50;1.00;;;;;;5077236;28;20561;-59
2023/06/18 01:59:02;;;;;;;2.70;2.20;;;19.50;1.00;;;;;;5076899;28;20904;-59
2023/06/18 02:01:30;;;;;;;2.90;2.60;;;19.50;1.00;;;;;;5076606;28;20453;-59
2023/06/18 02:03:58;;;;;;;2.55;2.33;;;19.50;1.00;;;;;;5075986;28;20847;-59
2023/06/18 02:06:25;;;;;;;3.10;2.22;;;19.50;1.00;;;;;;5076961;28;20430;-60
2023/06/18 02:08:52;;;;;;;3.10;2.80;;;19.50;1.00;;;;;;5075072;28;20427;-59
2023/06/18 02:11:19;;;;;;;4.47;2.70;;;19.40;1.00;;;;;;5076871;28;20431;-59
2023/06/18 02:13:46;;;;;;;3.20;2.60;;;19.40;1.00;;;;;;5076396;28;20636;-59
2023/06/18 02:16:13;;;;;;;3.33;3.03;;;19.30;1.00;;;;;;5075756;28;20427;-59
2023/06/18 02:18:40;;;;;;;3.22;2.33;;;19.20;1.00;;;;;;5075023;28;21123;-59
2023/06/18 02:21:08;;;;;;;3.83;3.53;;;19.10;1.00;;;;;;5075857;28;20420;-60
2023/06/18 02:23:35;;;;;;;4.50;3.25;;;19.10;1.00;;;;;;5076474;28;20443;-59
2023/06/18 02:26:03;;;;;;;3.40;3.00;;;19.00;1.00;;;;;;5077642;28;20435;-59
2023/06/18 02:28:30;;;;;;;3.63;3.33;;;19.00;1.00;;;;;;5076757;28;20434;-60
2023/06/18 02:30:57;;;;;;;4.32;3.92;;;19.10;1.00;;;;;;5076378;28;20484;-60
2023/06/18 02:33:25;;;;;;;3.50;3.20;;;19.10;1.00;;;;;;5076027;28;20427;-59
2023/06/18 02:35:52;;;;;;;3.78;3.05;;;19.10;1.00;;;;;;5076487;28;20418;-59
2023/06/18 02:38:21;;;;;;;3.45;3.15;;;19.20;1.00;;;;;;5076378;28;20423;-60
2023/06/18 02:40:48;;;;;;;3.83;3.43;;;19.10;1.00;;;;;;5076537;28;20458;-60
2023/06/18 02:43:15;;;;;;;5.53;3.40;;;19.20;1.00;;;;;;5073946;28;20928;-59
2023/06/18 02:45:42;;;;;;;3.10;2.80;;;19.10;1.00;;;;;;5075798;28;20496;-60
2023/06/18 02:48:09;;;;;;;4.27;2.83;;;19.10;1.00;;;;;;5075192;28;20454;-60
2023/06/18 02:50:36;;;;;;;3.92;3.20;;;19.10;1.00;;;;;;5075996;28;20449;-60
2023/06/18 02:53:03;;;;;;;3.78;3.38;;;19.10;1.00;;;;;;5075693;28;20431;-59
2023/06/18 02:55:32;;;;;;;3.33;3.00;;;19.10;1.00;;;;;;5074415;28;20774;-59
2023/06/18 02:57:59;;;;;;;3.55;3.20;;;19.10;1.00;;;;;;5073997;28;20461;-59
2023/06/18 03:00:25;;;;;;;3.13;2.60;;;19.00;1.00;;;;;;5074132;28;20447;-59
2023/06/18 03:02:52;;;;;;;3.83;3.30;;;19.00;1.00;;;;;;5072948;28;20415;-59
2023/06/18 03:05:19;;;;;;;3.10;2.80;;;19.00;1.00;;;;;;5074227;28;20510;-59
2023/06/18 03:07:46;;;;;;;4.43;2.90;;;19.00;1.00;;;;;;5074047;28;20423;-59
2023/06/18 03:10:13;;;;;;;3.08;2.78;;;19.00;1.00;;;;;;5074282;28;20496;-59
2023/06/18 03:12:42;;;;;;;3.20;2.72;;;19.00;1.00;;;;;;5073898;28;20493;-59
2023/06/18 03:15:09;;;;;;;3.10;2.80;;;18.80;1.00;;;;;;5073975;28;20477;-59
2023/06/18 03:17:36;;;;;;;3.85;2.70;;;18.70;1.00;;;;;;5075048;28;20423;-59
2023/06/18 03:20:06;;;;;;;3.47;3.03;;;18.60;1.00;;;;;;5073510;28;20796;-59
2023/06/18 03:22:33;;;;;;;2.80;2.40;;;18.50;1.00;;;;;;5072733;28;20920;-59
2023/06/18 03:25:01;;;;;;;3.20;2.90;;;18.50;1.00;;;;;;5072656;28;20431;-59
2023/06/18 03:27:28;;;;;;;4.20;3.20;;;18.50;1.00;;;;;;5074071;28;20435;-60
2023/06/18 03:29:56;;;;;;;3.80;2.50;;;18.60;1.00;;;;;;5074045;28;20423;-60
2023/06/18 03:32:23;;;;;;;4.10;3.58;;;18.70;1.00;;;;;;5073719;28;20427;-60
2023/06/18 03:34:52;;;;;;;3.28;2.90;;;18.80;1.00;;;;;;5074249;28;20843;-59
2023/06/18 03:37:19;;;;;;;3.10;2.90;;;18.80;1.00;;;;;;5074806;28;20847;-60
2023/06/18 03:39:45;;;;;;;3.33;3.03;;;18.80;1.00;;;;;;5075408;28;20544;-60
2023/06/18 03:42:12;;;;;;;3.22;2.83;;;18.70;1.00;;;;;;5074871;28;20925;-59
2023/06/18 03:44:39;;;;;;;4.68;3.35;;;18.60;1.00;;;;;;5074420;28;20851;-60
2023/06/18 03:47:08;;;;;;;4.85;2.92;;;18.60;1.00;;;;;;5074914;28;20556;-60
2023/06/18 03:49:35;;;;;;;5.20;3.25;;;18.60;1.00;;;;;;5074670;28;20706;-60
2023/06/18 03:52:02;;;;;;;3.72;2.85;;;18.40;1.00;;;;;;5073390;28;20435;-59
2023/06/18 03:54:29;;;;;;;3.28;2.97;;;18.40;1.00;;;;;;5073146;28;20431;-60
2023/06/18 03:56:56;;;;;;;3.42;3.10;;;18.50;1.00;;;;;;5072607;28;20472;-59
2023/06/18 03:59:23;;;;;;;3.13;2.83;;;18.60;1.00;;;;;;5073666;28;20431;-60
2023/06/18 04:01:50;;;;;;;3.40;3.10;;;18.70;1.00;;;;;;5074305;28;20524;-60
2023/06/18 04:04:18;;;;;;;4.05;3.05;;;18.80;1.00;;;;;;5073496;28;20833;-60
2023/06/18 04:06:46;;;;;;;3.25;2.75;;;18.90;1.00;;;;;;5071376;28;20538;-60
2023/06/18 04:09:13;;;;;;;3.70;2.83;;;18.90;1.00;;;;;;5071029;28;20502;-60
2023/06/18 04:11:40;;;;;;;2.97;2.70;;;19.00;1.00;;;;;;5070458;28;20745;-60
2023/06/18 04:14:08;;;;;;;2.93;2.63;;;19.00;1.00;;;;;;5071974;28;20882;-60
2023/06/18 04:16:35;;;;;;;3.33;2.60;;;19.10;1.00;;;;;;5071247;28;20831;-60
2023/06/18 04:19:02;;;;;;;3.70;3.25;;;19.10;1.00;;;;;;5069938;28;20769;-60
2023/06/18 04:21:30;;;;;;;2.63;2.30;;;19.10;1.00;;;;;;5070620;28;20526;-59
2023/06/18 04:23:57;;;;;;;3.67;3.10;;;19.10;1.00;;;;;;5072716;28;20428;-60
2023/06/18 04:26:24;;;;;;;3.23;2.90;;;19.20;1.00;;;;;;5074724;28;20440;-60
2023/06/18 04:28:51;;;;;;;3.40;2.72;;;19.30;1.00;;;;;;5073496;28;20592;-60
2023/06/18 04:31:18;;;;;;;3.00;2.70;;;19.30;1.00;;;;;;5075863;28;20893;-64
2023/06/18 04:33:45;;;;;;;2.65;2.40;;;19.30;1.00;;;;;;5078206;28;20419;-60
2023/06/18 04:36:14;;;;;;;3.38;3.08;;;19.40;1.00;;;;;;5077614;28;20416;-60
2023/06/18 04:38:43;;;;;;;3.60;2.55;;;19.40;1.00;;;;;;5078641;28;20423;-60
2023/06/18 04:41:10;;;;;;;2.70;2.30;;;19.50;1.00;;;;;;5077147;28;20958;-60
2023/06/18 04:43:37;;;;;;;4.00;2.20;;;19.50;1.00;;;;;;5078078;28;20427;-60
2023/06/18 04:46:04;;;;;;;2.92;2.40;;;19.50;1.00;;;;;;5078077;28;20870;-60
2023/06/18 04:48:31;;;;;;;2.60;2.33;;;19.60;1.00;;;;;;5078045;28;20551;-59
2023/06/18 04:50:58;;;;;;;3.10;2.70;;;19.60;1.00;;;;;;5078386;28;20712;-59
2023/06/18 04:53:25;;;;;;;3.00;2.10;;;19.50;1.00;;;;;;5077299;28;20427;-59
2023/06/18 04:55:54;;;;;;;3.70;2.30;;;19.30;1.00;;;;;;5077048;28;20419;-60
2023/06/18 04:58:21;;;;;;;3.40;2.50;;;19.30;1.00;;;;;;5076665;28;20819;-58
2023/06/18 05:00:48;;;;;;;3.10;2.70;;;19.30;1.00;;;;;;5077302;28;20431;-58
2023/06/18 05:03:15;;;;;;;4.33;2.30;;;19.40;1.00;;;;;;5076251;28;20786;-60
2023/06/18 05:05:42;;;;;;;2.85;2.30;;;19.40;1.00;;;;;;5076639;28;20431;-59
2023/06/18 05:08:09;;;;;;;2.63;2.03;;;19.50;1.00;;;;;;5077959;28;20431;-60
2023/06/18 05:10:36;;;;;;;3.50;3.20;;;19.60;1.00;;;;;;5077822;28;20463;-59
2023/06/18 05:13:04;;;;;;;4.20;2.63;;;19.50;1.00;;;;;;5077685;28;20500;-60
2023/06/18 05:15:31;;;;;;;3.13;2.33;;;19.40;1.00;;;;;;5078118;28;20552;-59
2023/06/18 05:17:58;;;;;;;2.80;2.60;;;19.30;1.00;;;;;;5077874;28;20419;-60
2023/06/18 05:20:25;;;;;;;2.50;2.08;;;19.20;1.00;;;;;;5077118;28;20846;-60
2023/06/18 05:22:52;;;;;;;3.53;2.40;;;19.10;1.00;;;;;;5076922;28;20431;-60
2023/06/18 05:25:19;;;;;;;2.92;2.25;;;19.10;1.00;;;;;;5077158;28;20439;-60
2023/06/18 05:27:46;;;;;;;2.88;2.58;;;19.20;1.00;;;;;;5078089;28;20423;-60
2023/06/18 05:30:14;;;;;;;3.60;2.53;;;19.40;1.00;;;;;;5077423;28;20473;-60
2023/06/18 05:32:41;;;;;;;2.80;2.50;;;19.60;1.00;;;;;;5077591;28;20457;-60
2023/06/18 05:35:09;;;;;;;2.60;2.40;;;19.70;1.00;;;;;;5076643;28;20427;-60
2023/06/18 05:37:36;;;;;;;2.97;2.67;;;19.80;1.00;;;;;;5075479;28;20435;-60
2023/06/18 05:40:04;;;;;;;3.70;2.42;;;19.80;1.00;;;;;;5076596;28;20846;-60
2023/06/18 05:42:30;;;;;;;2.50;2.10;;;19.90;1.00;;;;;;5075724;28;20537;-60
2023/06/18 05:44:57;;;;;;;2.50;2.00;;;19.80;1.00;;;;;;5075927;28;20505;-60
2023/06/18 05:47:26;;;;;;;3.90;2.80;;;19.90;1.00;;;;;;5075407;28;20916;-59
2023/06/18 05:49:53;;;;;;;2.20;1.85;;;19.90;1.00;;;;;;5075545;28;20855;-59
2023/06/18 05:52:19;;;;;;;2.42;2.08;;;19.90;1.00;;;;;;5075702;28;20427;-59
2023/06/18 05:54:46;;;;;;;2.80;2.50;;;19.90;1.00;;;;;;5073014;28;20801;-58
2023/06/18 05:57:13;;;;;;;3.10;2.70;;;20.00;1.00;;;;;;5073165;28;20415;-58
2023/06/18 05:59:40;;;;;;;3.25;2.42;;;19.90;1.00;;;;;;5072973;28;20867;-59
2023/06/18 06:02:08;;;;;;;3.30;2.30;;;19.90;1.00;;;;;;5073984;28;20431;-60
2023/06/18 06:04:36;;;;;;;2.88;2.20;;;20.00;1.00;;;;;;5074177;28;20652;-59
2023/06/18 06:07:03;;;;;;;3.38;2.60;;;19.90;1.00;;;;;;5074691;28;20440;-59
2023/06/18 06:09:30;;;;;;;4.13;2.70;;;19.90;1.00;;;;;;5076745;28;20424;-59
2023/06/18 06:11:57;;;;;;;3.70;2.50;;;20.10;1.00;;;;;;5076490;28;20543;-60
2023/06/18 06:14:24;;;;;;;2.90;2.60;;;20.20;1.00;;;;;;5077162;28;20431;-59
2023/06/18 06:16:57;;;;;;;3.78;3.28;;;20.30;1.00;;;;;;5076527;28;20916;-60
2023/06/18 06:19:24;;;;;;;2.92;2.72;;;20.40;1.00;;;;;;5075533;28;20427;-60
2023/06/18 06:21:52;;;;;;;3.80;2.85;;;20.40;1.00;;;;;;5076450;28;20432;-59
2023/06/18 06:24:19;;;;;;;3.22;2.80;;;20.50;1.00;;;;;;5075820;28;20458;-59
2023/06/18 06:26:46;;;;;;;4.20;2.70;;;20.50;1.00;;;;;;5076431;28;20463;-60
2023/06/18 06:29:13;;;;;;;3.28;2.75;;;20.60;1.00;;;;;;5076695;28;20486;-59
2023/06/18 06:31:40;;;;;;;4.38;2.60;;;20.70;1.00;;;;;;5074137;28;20493;-59
2023/06/18 06:34:07;;;;;;;4.43;2.58;;;20.80;1.00;;;;;;5074157;28;20431;-59
2023/06/18 06:36:35;;;;;;;3.03;2.67;;;20.90;1.00;;;;;;5074249;28;20886;-59
2023/06/18 06:39:03;;;;;;;3.30;2.35;;;21.00;1.00;;;;;;5074583;28;20434;-59
2023/06/18 06:41:30;;;;;;;2.67;2.47;;;21.10;1.00;;;;;;5075212;28;20428;-60
2023/06/18 06:43:57;;;;;;;2.65;2.45;;;21.20;1.00;;;;;;5074315;28;20431;-59
2023/06/18 06:46:24;;;;;;;3.40;3.10;;;21.30;1.00;;;;;;5075068;28;20481;-59
2023/06/18 06:48:51;;;;;;;3.87;3.00;;;21.40;1.00;;;;;;5075437;28;20423;-60
2023/06/18 06:51:18;;;;;;;2.60;2.30;;;21.40;1.00;;;;;;5076365;28;20423;-59
2023/06/18 06:53:45;;;;;;;3.30;2.78;;;21.50;1.00;;;;;;5075847;28;20455;-59
2023/06/18 06:56:14;;;;;;;3.50;3.20;;;21.50;1.00;;;;;;5074494;28;20431;-60
2023/06/18 06:58:41;;;;;;;3.05;2.55;;;21.60;1.00;;;;;;5075441;28;20427;-59
2023/06/18 07:01:08;;;;;;;3.10;2.50;;;21.60;1.00;;;;;;5075200;28;20732;-59
2023/06/18 07:03:35;;;;;;;4.00;3.10;;;21.70;1.00;;;;;;5075406;28;20435;-60
2023/06/18 07:06:03;;;;;;;2.70;1.90;;;21.80;1.00;;;;;;5075613;28;20435;-59
2023/06/18 07:08:31;;;;;;;2.60;2.38;;;21.80;1.00;;;;;;5074318;28;20453;-60
2023/06/18 07:10:58;;;;;;;2.58;2.35;;;22.00;1.00;;;;;;5073322;28;20431;-58
2023/06/18 07:13:26;;;;;;;2.45;1.95;;;22.20;1.00;;;;;;5074360;28;20427;-59
2023/06/18 07:15:53;;;;;;;3.35;2.35;;;22.40;1.00;;;;;;5074853;28;20423;-59
2023/06/18 07:18:20;;;;;;;3.10;2.50;;;22.80;1.00;;;;;;5074434;28;20493;-59
2023/06/18 07:20:47;;;;;;;2.85;2.40;;;22.90;1.00;;;;;;5074559;28;20427;-60
2023/06/18 07:23:14;;;;;;;2.92;2.22;;;23.00;1.00;;;;;;5074135;28;20882;-59
2023/06/18 07:25:41;;;;;;;3.25;2.10;;;23.10;1.00;;;;;;5075870;28;20423;-59
2023/06/18 07:28:08;;;;;;;3.03;2.60;;;23.30;1.00;;;;;;5074725;28;20851;-59
2023/06/18 07:30:36;;;;;;;2.88;2.67;;;23.40;1.00;;;;;;5074221;28;20931;-59
2023/06/18 07:33:03;;;;;;;2.42;2.22;;;23.50;1.00;;;;;;5074064;28;20431;-58
2023/06/18 07:35:30;;;;;;;4.38;2.45;;;23.50;1.00;;;;;;5075728;28;20481;-60
2023/06/18 07:37:57;;;;;;;4.85;2.13;;;23.50;1.00;;;;;;5075606;28;20424;-59
2023/06/18 07:40:25;;;;;;;2.28;2.08;;;23.60;1.00;;;;;;5073945;28;20782;-59
2023/06/18 07:42:52;;;;;;;2.25;2.05;;;23.90;1.00;;;;;;5074825;28;20435;-59
2023/06/18 07:45:19;;;;;;;2.97;2.08;;;24.00;1.00;;;;;;5074559;28;20419;-59
2023/06/18 07:47:48;;;;;;;2.72;2.03;;;24.10;1.00;;;;;;5073909;28;20855;-60
2023/06/18 07:50:15;;;;;;;2.55;2.28;;;24.20;1.00;;;;;;5075085;28;20496;-60
2023/06/18 07:52:42;;;;;;;3.10;2.20;;;24.40;1.00;;;;;;5074951;28;20432;-59
2023/06/18 07:55:10;;;;;;;3.55;2.00;;;24.40;1.00;;;;;;5074405;28;20862;-59
2023/06/18 07:57:38;;;;;;;2.40;1.90;;;24.50;1.00;;;;;;5073984;28;20911;-59
2023/06/18 08:00:06;;;;;;;2.40;1.80;;;24.50;1.00;;;;;;5073789;28;20424;-59
2023/06/18 08:02:33;;;;;;;1.80;1.60;;;24.60;1.00;;;;;;5075354;28;20419;-59
2023/06/18 08:05:02;;;;;;;2.00;1.45;;;24.80;1.00;;;;;;5074337;28;20438;-60
2023/06/18 08:07:30;;;;;;;2.10;1.90;;;25.00;1.00;;;;;;5072873;28;20446;-59
2023/06/18 08:09:56;;;;;;;2.60;1.70;;;25.00;1.00;;;;;;5074541;28;20431;-59
2023/06/18 08:12:23;;;;;;;2.50;1.80;;;25.00;1.00;;;;;;5074553;28;20428;-59
2023/06/18 08:14:50;;;;;;;2.20;2.00;;;25.00;1.00;;;;;;5072574;28;20420;-59
2023/06/18 08:17:17;;;;;;;2.70;1.50;;;25.10;1.00;;;;;;5072738;28;20415;-59
2023/06/18 08:19:46;;;;;;;2.40;2.00;;;25.10;1.00;;;;;;5072400;28;20435;-59
2023/06/18 08:22:15;;;;;;;2.90;2.30;;;25.30;1.00;;;;;;5072355;28;20617;-59
2023/06/18 08:24:42;;;;;;;2.60;2.17;;;25.50;1.00;;;;;;5071425;28;20445;-59
2023/06/18 08:27:09;;;;;;;2.17;1.80;;;25.60;1.00;;;;;;5071677;28;20463;-59
2023/06/18 08:29:36;;;;;;;2.25;2.05;;;25.60;1.00;;;;;;5072928;28;20459;-59
2023/06/18 08:32:04;;;;;;;2.33;2.13;;;25.60;1.00;;;;;;5072815;28;20427;-59
2023/06/18 08:34:32;;;;;;;2.90;2.23;;;25.70;1.00;;;;;;5073346;28;20439;-58
2023/06/18 08:37:02;;;;;;;2.27;1.80;;;25.70;1.00;;;;;;5072661;28;20514;-58
2023/06/18 08:39:31;;;;;;;2.53;2.28;;;25.90;1.00;;;;;;5071288;28;20744;-59
2023/06/18 08:42:00;;;;;;;2.95;2.45;;;26.10;1.00;;;;;;5073766;28;20420;-60
2023/06/18 08:44:27;;;;;;;2.50;1.77;;;26.30;1.00;;;;;;5073062;28;20424;-59
2023/06/18 08:46:59;;;;;;;3.35;1.70;;;26.50;1.00;;;;;;5072312;28;20498;-60
2023/06/18 08:49:28;;;;;;;3.40;1.95;;;26.60;1.00;;;;;;5073209;28;20882;-59
2023/06/18 08:51:57;;;;;;;2.28;1.85;;;26.60;1.00;;;;;;5073322;28;20424;-60
2023/06/18 08:54:30;;;;;;;2.00;1.70;;;26.70;1.00;;;;;;5069844;28;20500;-59
2023/06/18 08:57:03;;;;;;;2.30;1.52;;;26.90;1.00;;;;;;5073747;28;20481;-59
2023/06/18 08:59:31;;;;;;;1.77;1.67;;;27.00;1.00;;;;;;5073550;28;20429;-59
2023/06/18 09:02:07;;;;;;;2.20;1.80;;;27.10;1.00;;;;;;5073623;28;20424;-61
2023/06/18 09:04:36;;;;;;;2.20;2.00;;;27.30;1.00;;;;;;5071650;28;20843;-60
2023/06/18 09:07:04;;;;;;;4.10;1.85;;;27.50;1.00;;;;;;5070823;28;20625;-60
2023/06/18 09:09:31;;;;;;;2.05;1.70;;;27.50;1.00;;;;;;5071747;28;20754;-59
2023/06/18 09:12:00;;;;;;;2.80;1.60;;;27.50;1.00;;;;;;5072200;28;20472;-59
2023/06/18 09:14:27;;;;;;;1.58;1.40;;;27.40;1.00;;;;;;5072606;28;20431;-59
2023/06/18 09:16:54;;;;;;;1.67;1.48;;;27.30;1.00;;;;;;5072285;28;20724;-59
2023/06/18 09:19:21;;;;;;;2.20;1.38;;;27.20;1.00;;;;;;5075722;28;20430;-59
2023/06/18 09:21:48;;;;;;;1.60;1.40;;;27.30;1.00;;;;;;5076931;28;20481;-59
2023/06/18 09:24:19;;;;;;;1.60;1.30;;;27.30;1.00;;;;;;5077058;28;20462;-59
2023/06/18 09:26:46;;;;;;;1.60;1.40;;;27.40;1.00;;;;;;5077317;28;20835;-61
2023/06/18 09:29:14;;;;;;;1.50;1.20;;;27.40;1.00;;;;;;5077323;28;20859;-60
2023/06/18 09:31:44;;;;;;;2.00;1.40;;;27.20;1.00;;;;;;5077302;28;20435;-60
2023/06/18 09:34:16;;;;;;;2.00;1.40;;;27.30;1.00;;;;;;5076530;28;20434;-60
2023/06/18 09:36:44;;;;;;;1.85;1.50;;;27.60;1.00;;;;;;5075970;28;20432;-60
2023/06/18 09:39:18;;;;;;;2.10;1.30;;;27.70;1.00;;;;;;5076430;28;20458;-60
2023/06/18 09:41:46;;;;;;;1.70;1.30;;;28.00;1.00;;;;;;5075552;28;20786;-60
2023/06/18 09:44:15;;;;;;;2.47;1.30;;;28.30;99.90;;;;;;5075573;28;20484;-60
2023/06/18 09:46:46;;;;;;;3.20;1.60;;;28.50;99.90;;;;;;5074907;28;20435;-60
2023/06/18 09:49:14;;;;;;;1.52;1.30;;;28.70;99.90;;;;;;5074877;28;20423;-61
2023/06/18 09:51:42;;;;;;;1.50;1.30;;;28.90;99.90;;;;;;5073913;28;20427;-58
2023/06/18 09:54:09;;;;;;;1.63;1.40;;;28.90;99.90;;;;;;5071875;28;20482;-59
2023/06/18 09:56:38;;;;;;;2.60;1.40;;;28.80;99.90;;;;;;5073499;28;20427;-60
2023/06/18 09:59:05;;;;;;;1.90;1.60;;;28.50;99.90;;;;;;5074928;28;20431;-60
2023/06/18 10:01:47;;;;;;;1.58;1.30;;;28.40;99.90;;;;;;5074805;28;20428;-60
2023/06/18 10:04:14;;;;;;;2.15;1.33;;;28.50;99.90;;;;;;5073159;28;20936;-60
2023/06/18 10:06:42;;;;;;;1.60;1.20;;;28.40;99.90;;;;;;5067482;28;20484;-60
2023/06/18 10:09:10;;;;;;;1.92;1.17;;;28.30;99.90;;;;;;5075771;28;20423;-60
2023/06/18 10:11:38;;;;;;;1.90;1.30;;;28.50;99.90;;;;;;5076087;28;20427;-60
2023/06/18 10:14:11;;;;;;;2.03;1.40;;;28.50;99.90;;;;;;5075217;28;20465;-61
2023/06/18 10:16:42;;;;;;;1.92;1.30;;;28.20;99.90;;;;;;5075799;28;20533;-61
2023/06/18 10:19:14;;;;;;;1.50;1.40;;;28.10;99.90;;;;;;5074182;28;20950;-60
2023/06/18 10:21:51;;;;;;;1.80;1.20;;;28.30;99.90;;;;;;5073781;28;20790;-61
2023/06/18 10:24:20;;;;;;;1.42;1.20;;;28.80;99.90;;;;;;5074702;28;20432;-61
2023/06/18 10:26:47;;;;;;;1.90;1.35;;;29.10;99.90;;;;;;5073834;28;20552;-60
2023/06/18 10:29:15;;;;;;;2.00;1.20;;;29.20;99.90;;;;;;5072784;28;20474;-61
2023/06/18 10:31:42;;;;;;;2.70;1.42;;;29.70;99.90;;;;;;5072996;28;20526;-60
2023/06/18 10:34:11;;;;;;;1.88;1.58;;;30.40;99.90;;;;;;5072764;28;20462;-59
2023/06/18 10:36:39;;;;;;;1.30;1.10;;;30.40;99.90;;;;;;5072691;28;20559;-59
2023/06/18 10:39:07;;;;;;;1.85;1.30;;;30.60;99.90;;;;;;5073622;28;20494;-59
2023/06/18 10:41:35;;;;;;;3.70;1.50;;;30.30;99.90;;;;;;5073999;28;20506;-60
2023/06/18 10:44:02;;;;;;;1.83;1.20;;;30.10;99.90;;;;;;5072410;28;20738;-60
2023/06/18 10:46:33;;;;;;;1.90;1.30;;;30.50;99.90;;;;;;5071445;28;20466;-60
2023/06/18 10:49:16;;;;;;;1.40;1.20;;;30.80;99.90;;;;;;5070470;28;20863;-60
2023/06/18 10:51:45;;;;;;;1.60;1.20;;;30.80;99.90;;;;;;5052808;28;20488;-59
2023/06/18 10:54:29;;;;;;;2.63;1.30;;;30.80;99.90;;;;;;5053413;28;20429;-60
2023/06/18 10:56:58;;;;;;;1.50;1.30;;;30.70;99.90;;;;;;5055334;28;20761;-60
2023/06/18 10:59:41;;;;;;;1.60;1.20;;;30.60;99.90;;;;;;5054261;28;20437;-62
2023/06/18 11:02:09;;;;;;;1.40;1.10;;;31.10;99.90;;;;;;5053474;28;20433;-60
2023/06/18 11:04:38;;;;;;;1.30;1.10;;;31.50;99.90;;;;;;5051822;28;20429;-61
2023/06/18 11:07:15;;;;;;;1.50;1.20;;;31.50;99.90;;;;;;5053339;28;20857;-60
2023/06/18 11:09:51;;;;;;;1.30;1.10;;;31.40;99.90;;;;;;5053098;28;20483;-60
2023/06/18 11:12:20;;;;;;;1.60;1.30;;;31.40;99.90;;;;;;5053307;28;20429;-60
2023/06/18 11:15:11;;;;;;;1.30;1.20;;;31.50;99.90;;;;;;5054970;28;20710;-59
2023/06/18 11:17:40;;;;;;;1.30;1.20;;;32.10;99.90;;;;;;5053642;28;20467;-63
2023/06/18 11:20:09;;;;;;;1.50;1.20;;;32.00;99.90;;;;;;5054053;28;20429;-60
2023/06/18 11:22:37;;;;;;;1.35;1.10;;;32.50;99.90;;;;;;5057281;28;20428;-63
2023/06/18 11:25:07;;;;;;;2.30;1.60;;;32.40;99.90;;;;;;5074746;28;20442;-61
2023/06/18 11:27:34;;;;;;;2.30;1.30;;;32.20;99.90;;;;;;5073195;28;20439;-60
2023/06/18 11:30:02;;;;;;;1.60;1.10;;;32.00;99.90;;;;;;5054482;28;20729;-60
2023/06/18 11:32:29;;;;;;;2.00;1.40;;;31.60;99.90;;;;;;5064248;28;20432;-60
2023/06/18 11:34:56;;;;;;;1.80;1.20;;;31.70;99.90;;;;;;5074553;28;20431;-62
2023/06/18 11:37:27;;;;;;;1.58;1.27;;;32.00;99.90;;;;;;5073614;28;20428;-63
2023/06/18 11:39:56;;;;;;;1.80;1.30;;;32.40;99.90;;;;;;5077283;28;20696;-60
2023/06/18 11:42:25;;;;;;;1.38;1.27;;;32.60;99.90;;;;;;5071564;28;20431;-61
2023/06/18 11:44:54;;;;;;;1.20;1.10;;;33.10;99.90;;;;;;5070522;28;20439;-63
2023/06/18 11:47:21;;;;;;;1.52;1.20;;;33.70;99.90;;;;;;5071215;28;20438;-59
2023/06/18 11:49:50;;;;;;;2.20;1.20;;;34.20;99.90;;;;;;5071903;28;20509;-60
2023/06/18 11:52:22;;;;;;;1.27;1.17;;;33.80;99.90;;;;;;5073607;28;20493;-59
2023/06/18 11:54:53;;;;;;;1.90;1.20;;;34.10;99.90;;;;;;5073415;28;20433;-61
2023/06/18 11:57:22;;;;;;;1.50;1.20;;;33.80;99.90;;;;;;5071029;28;20529;-61
2023/06/18 11:59:52;;;;;;;1.70;1.20;;;33.20;99.90;;;;;;5072405;28;20411;-61
2023/06/18 12:02:20;;;;;;;2.00;1.27;;;33.00;99.90;;;;;;5073591;28;20481;-60
2023/06/18 12:04:48;;;;;;;1.50;1.20;;;32.60;99.90;;;;;;5072710;28;20774;-60
2023/06/18 12:07:19;;;;;;;1.20;1.10;;;32.80;99.90;;;;;;5072060;28;20866;-59
2023/06/18 12:09:47;;;;;;;1.50;1.30;;;33.10;99.90;;;;;;5073772;28;20431;-60
2023/06/18 12:12:25;;;;;;;1.20;1.10;;;32.60;99.90;;;;;;5074003;28;21444;-61
2023/06/18 12:14:59;;;;;;;1.30;1.10;;;32.40;99.90;;;;;;5073314;28;20474;-61
2023/06/18 12:17:32;;;;;;;1.70;1.20;;;32.00;99.90;;;;;;5072714;28;20790;-59
2023/06/18 12:20:05;;;;;;;1.50;1.10;;;32.00;99.90;;;;;;5071797;28;20432;-61
2023/06/18 12:22:32;;;;;;;1.60;1.20;;;32.20;99.90;;;;;;5072139;28;20431;-60
2023/06/18 12:25:00;;;;;;;1.50;1.10;;;32.40;99.90;;;;;;5071997;28;20435;-59
2023/06/18 12:27:28;;;;;;;1.33;1.20;;;32.60;99.90;;;;;;5071729;28;20509;-61
2023/06/18 12:30:00;;;;;;;1.40;1.10;;;33.30;99.90;;;;;;5071466;28;20473;-60
2023/06/18 12:32:27;;;;;;;1.50;1.30;;;33.40;99.90;;;;;;5070583;28;20735;-60
2023/06/18 12:34:54;;;;;;;1.60;1.20;;;34.10;99.90;;;;;;5070116;28;20439;-61
2023/06/18 12:37:31;;;;;;;1.20;1.10;;;34.70;99.90;;;;;;5070689;28;20415;-62
2023/06/18 12:40:14;;;;;;;1.35;1.20;;;34.40;99.90;;;;;;5071658;28;20477;-60
2023/06/18 12:42:42;;;;;;;1.40;1.30;;;34.80;99.90;;;;;;5071583;28;20427;-64
2023/06/18 12:45:10;;;;;;;1.40;1.10;;;34.30;99.90;;;;;;5071330;28;20416;-60
2023/06/18 12:47:41;;;;;;;1.40;1.10;;;34.00;99.90;;;;;;5071747;28;20451;-61
2023/06/18 12:50:09;;;;;;;1.70;1.10;;;33.60;99.90;;;;;;5072004;28;20810;-61
2023/06/18 12:52:40;;;;;;;1.30;1.20;;;33.30;99.90;;;;;;5073875;28;20431;-62
2023/06/18 12:55:17;;;;;;;1.30;1.08;;;33.20;99.90;;;;;;5077116;28;20427;-61
2023/06/18 12:57:48;;;;;;;1.27;1.10;;;33.70;99.90;;;;;;5073626;28;20453;-61
2023/06/18 13:00:17;;;;;;;1.30;1.10;;;33.80;99.90;;;;;;5072629;28;20713;-60
2023/06/18 13:02:44;;;;;;;1.33;1.20;;;34.10;99.90;;;;;;5074970;28;20420;-60